createdAt,value
2023-05-17T00:00:00.101Z,99.99
2023-05-17T00:01:00.298Z,99.99
2023-05-17T00:01:59.991Z,99.99
2023-05-17T00:03:00.220Z,99.99
2023-05-17T00:03:59.909Z,99.99
2023-05-17T00:05:00.173Z,99.99
2023-05-17T00:05:59.851Z,99.99
2023-05-17T00:06:59.926Z,99.99
2023-05-17T00:07:59.728Z,99.99
2023-05-17T00:08:59.702Z,99.99
2023-05-17T00:09:59.752Z,99.99
2023-05-17T00:10:59.588Z,99.99
2023-05-17T00:11:59.759Z,99.99
2023-05-17T00:12:59.622Z,99.99
2023-05-17T00:13:59.581Z,99.99
2023-05-17T00:14:59.404Z,99.99
2023-05-17T00:15:59.586Z,99.99
2023-05-17T00:16:59.329Z,99.99
2023-05-17T00:17:59.468Z,99.99
2023-05-17T00:18:59.355Z,99.99
2023-05-17T00:19:59.452Z,99.99
2023-05-17T00:20:59.148Z,99.99
2023-05-17T00:21:59.221Z,99.99
2023-05-17T00:22:59.055Z,99.99
2023-05-17T00:23:59.231Z,99.99
2023-05-17T00:24:58.975Z,99.99
2023-05-17T00:25:58.920Z,99.99
2023-05-17T00:26:58.892Z,99.99
2023-05-17T00:27:59.059Z,99.99
2023-05-17T00:28:58.859Z,99.99
2023-05-17T00:29:58.870Z,99.99
2023-05-17T00:30:58.921Z,99.99
2023-05-17T00:31:58.651Z,99.99
2023-05-17T00:32:58.762Z,99.99
2023-05-17T00:33:58.594Z,99.99
2023-05-17T00:34:58.776Z,99.99
2023-05-17T00:35:58.537Z,99.99
2023-05-17T00:36:58.508Z,99.99
2023-05-17T00:37:58.377Z,99.99
2023-05-17T00:38:58.521Z,99.99
2023-05-17T00:39:58.294Z,99.99
2023-05-17T00:40:58.347Z,99.99
2023-05-17T00:41:58.400Z,99.99
2023-05-17T00:42:58.163Z,99.99
2023-05-17T00:43:58.105Z,99.99
2023-05-17T00:44:58.158Z,99.99
2023-05-17T00:45:58.022Z,99.99
2023-05-17T00:46:58.171Z,99.99
2023-05-17T00:47:58.120Z,99.99
2023-05-17T00:48:57.881Z,99.99
2023-05-17T00:49:57.886Z,99.99
2023-05-17T00:50:57.994Z,99.99
2023-05-17T00:51:57.753Z,99.99
2023-05-17T00:52:58.019Z,99.99
2023-05-17T00:53:57.665Z,99.99
2023-05-17T00:54:57.616Z,99.99
2023-05-17T00:55:57.834Z,99.99
2023-05-17T00:56:57.516Z,99.99
2023-05-17T00:57:57.638Z,99.99
2023-05-17T00:58:57.496Z,99.99
2023-05-17T00:59:57.655Z,99.99
2023-05-17T01:00:57.337Z,99.99
2023-05-17T01:01:57.465Z,99.99
2023-05-17T01:02:57.308Z,99.99
2023-05-17T01:03:57.597Z,99.99
2023-05-17T01:04:57.417Z,99.99
2023-05-17T01:05:57.297Z,99.99
2023-05-17T01:06:57.078Z,99.99
2023-05-17T01:07:57.305Z,99.99
2023-05-17T01:08:57.029Z,99.99
2023-05-17T01:09:57.111Z,99.99
2023-05-17T01:10:56.897Z,99.99
2023-05-17T01:11:56.991Z,99.99
2023-05-17T01:12:56.799Z,99.99
2023-05-17T01:13:57.975Z,99.99
2023-05-17T01:14:56.705Z,99.89
2023-05-17T01:15:56.949Z,99.99
2023-05-17T01:16:56.622Z,99.99
2023-05-17T01:17:56.667Z,99.99
2023-05-17T01:18:56.656Z,99.99
2023-05-17T01:19:56.993Z,99.41
2023-05-17T01:20:56.437Z,99.99
2023-05-17T01:21:56.788Z,99.99
2023-05-17T01:22:56.340Z,99.99
2023-05-17T01:23:56.312Z,99.99
2023-05-17T01:24:56.255Z,99.89
2023-05-17T01:25:56.430Z,99.51
2023-05-17T01:26:56.192Z,99.99
2023-05-17T01:27:56.427Z,99.99
2023-05-17T01:28:56.075Z,99.99
2023-05-17T01:29:56.031Z,99.99
2023-05-17T01:30:56.244Z,99.99
2023-05-17T01:31:55.937Z,99.99
2023-05-17T01:32:56.141Z,99.99
2023-05-17T01:33:56.196Z,99.99
2023-05-17T01:34:55.803Z,99.99
2023-05-17T01:35:55.763Z,99.99
2023-05-17T01:36:55.881Z,99.99
2023-05-17T01:37:55.692Z,99.99
2023-05-17T01:38:55.901Z,99.80
2023-05-17T01:39:55.596Z,99.89
2023-05-17T01:40:55.545Z,99.89
2023-05-17T01:41:55.495Z,99.99
2023-05-17T01:42:55.752Z,99.99
2023-05-17T01:43:55.587Z,99.99
2023-05-17T01:44:55.524Z,99.99
2023-05-17T01:45:55.322Z,99.99
2023-05-17T01:46:55.260Z,99.89
2023-05-17T01:47:55.401Z,99.99
2023-05-17T01:48:55.293Z,99.99
2023-05-17T01:49:55.398Z,99.99
2023-05-17T01:50:55.083Z,99.99
2023-05-17T01:51:55.169Z,99.32
2023-05-17T01:52:54.991Z,99.32
2023-05-17T01:53:55.191Z,98.94
2023-05-17T01:54:55.271Z,98.75
2023-05-17T01:55:54.998Z,98.36
2023-05-17T01:56:54.819Z,98.18
2023-05-17T01:57:55.013Z,96.84
2023-05-17T01:58:54.738Z,96.94
2023-05-17T01:59:54.823Z,96.46
2023-05-17T02:00:54.671Z,94.93
2023-05-17T02:01:54.841Z,94.74
2023-05-17T02:02:54.590Z,94.17
2023-05-17T02:03:54.559Z,93.41
2023-05-17T02:04:54.525Z,93.03
2023-05-17T02:05:54.656Z,93.51
2023-05-17T02:06:54.382Z,91.22
2023-05-17T02:07:54.464Z,90.26
2023-05-17T02:08:54.271Z,89.69
2023-05-17T02:09:54.234Z,89.79
2023-05-17T02:10:54.496Z,89.31
2023-05-17T02:11:54.312Z,89.40
2023-05-17T02:12:54.302Z,89.22
2023-05-17T02:13:54.050Z,88.55
2023-05-17T02:14:54.156Z,88.55
2023-05-17T02:15:53.962Z,86.83
2023-05-17T02:16:54.125Z,87.79
2023-05-17T02:17:54.251Z,88.55
2023-05-17T02:18:54.048Z,86.83
2023-05-17T02:19:53.786Z,86.74
2023-05-17T02:20:53.949Z,87.02
2023-05-17T02:21:53.685Z,87.31
2023-05-17T02:22:53.761Z,87.02
2023-05-17T02:23:53.631Z,86.74
2023-05-17T02:24:53.775Z,85.60
2023-05-17T02:25:53.639Z,85.97
2023-05-17T02:26:53.464Z,86.74
2023-05-17T02:27:53.413Z,84.74
2023-05-17T02:28:53.500Z,83.97
2023-05-17T02:29:53.367Z,84.92
2023-05-17T02:30:53.522Z,85.02
2023-05-17T02:31:53.248Z,84.92
2023-05-17T02:32:53.305Z,83.78
2023-05-17T02:33:53.487Z,83.88
2023-05-17T02:34:53.343Z,84.55
2023-05-17T02:35:53.061Z,83.69
2023-05-17T02:36:53.156Z,84.36
2023-05-17T02:37:52.967Z,85.41
2023-05-17T02:38:52.926Z,84.74
2023-05-17T02:39:52.907Z,84.64
2023-05-17T02:40:52.966Z,83.65
2023-05-17T02:41:52.797Z,83.65
2023-05-17T02:42:52.992Z,84.88
2023-05-17T02:43:52.845Z,83.84
2023-05-17T02:44:52.839Z,83.74
2023-05-17T02:45:52.602Z,83.65
2023-05-17T02:46:52.871Z,84.50
2023-05-17T02:47:52.527Z,84.88
2023-05-17T02:48:52.640Z,84.12
2023-05-17T02:49:52.627Z,84.69
2023-05-17T02:50:52.371Z,84.50
2023-05-17T02:51:52.646Z,83.74
2023-05-17T02:52:52.283Z,83.93
2023-05-17T02:53:52.450Z,83.69
2023-05-17T02:54:52.509Z,83.55
2023-05-17T02:55:52.325Z,83.88
2023-05-17T02:56:52.104Z,83.88
2023-05-17T02:57:52.276Z,84.45
2023-05-17T02:58:52.019Z,85.02
2023-05-17T02:59:52.090Z,84.83
2023-05-17T03:00:51.973Z,83.69
2023-05-17T03:01:52.153Z,83.40
2023-05-17T03:02:51.868Z,82.92
2023-05-17T03:03:52.220Z,82.45
2023-05-17T03:04:51.769Z,83.12
2023-05-17T03:05:51.929Z,82.54
2023-05-17T03:06:51.649Z,82.35
2023-05-17T03:07:51.598Z,83.12
2023-05-17T03:08:51.560Z,83.02
2023-05-17T03:09:51.964Z,82.54
2023-05-17T03:10:51.468Z,82.54
2023-05-17T03:11:51.557Z,82.45
2023-05-17T03:12:51.380Z,82.73
2023-05-17T03:13:51.340Z,83.69
2023-05-17T03:14:51.584Z,82.45
2023-05-17T03:15:51.272Z,82.54
2023-05-17T03:16:51.397Z,82.64
2023-05-17T03:17:51.213Z,82.64
2023-05-17T03:18:51.212Z,82.73
2023-05-17T03:19:51.111Z,82.26
2023-05-17T03:20:51.217Z,82.35
2023-05-17T03:21:50.989Z,83.97
2023-05-17T03:22:51.249Z,83.88
2023-05-17T03:23:51.164Z,84.07
2023-05-17T03:24:50.833Z,84.64
2023-05-17T03:25:50.794Z,84.55
2023-05-17T03:26:51.054Z,84.64
2023-05-17T03:27:50.717Z,84.07
2023-05-17T03:28:50.866Z,83.50
2023-05-17T03:29:50.607Z,83.59
2023-05-17T03:30:50.592Z,84.16
2023-05-17T03:31:50.515Z,82.83
2023-05-17T03:32:50.978Z,82.54
2023-05-17T03:33:50.567Z,83.02
2023-05-17T03:34:50.749Z,83.31
2023-05-17T03:35:50.338Z,82.26
2023-05-17T03:36:50.571Z,82.64
2023-05-17T03:37:50.530Z,82.07
2023-05-17T03:38:50.213Z,82.17
2023-05-17T03:39:50.243Z,81.97
2023-05-17T03:40:50.137Z,81.97
2023-05-17T03:41:50.255Z,81.78
2023-05-17T03:42:50.082Z,81.59
2023-05-17T03:43:50.060Z,82.35
2023-05-17T03:44:49.926Z,82.54
2023-05-17T03:45:50.072Z,81.97
2023-05-17T03:46:49.829Z,81.21
2023-05-17T03:47:49.831Z,81.59
2023-05-17T03:48:49.893Z,82.54
2023-05-17T03:49:49.893Z,82.73
2023-05-17T03:50:49.658Z,82.73
2023-05-17T03:51:49.706Z,82.54
2023-05-17T03:52:49.974Z,82.83
2023-05-17T03:53:49.519Z,82.64
2023-05-17T03:54:49.521Z,82.54
2023-05-17T03:55:49.436Z,81.78
2023-05-17T03:56:49.537Z,80.92
2023-05-17T03:57:49.336Z,80.16
2023-05-17T03:58:49.556Z,80.50
2023-05-17T03:59:49.272Z,80.69
2023-05-17T04:00:49.377Z,81.40
2023-05-17T04:01:49.255Z,81.40
2023-05-17T04:02:49.212Z,81.30
2023-05-17T04:03:49.097Z,81.78
2023-05-17T04:04:49.419Z,81.97
2023-05-17T04:05:48.989Z,81.88
2023-05-17T04:06:48.999Z,81.97
2023-05-17T04:07:48.895Z,82.07
2023-05-17T04:08:49.023Z,81.78
2023-05-17T04:09:48.802Z,82.17
2023-05-17T04:10:48.758Z,82.45
2023-05-17T04:11:48.706Z,82.45
2023-05-17T04:12:49.049Z,82.83
2023-05-17T04:13:48.621Z,83.21
2023-05-17T04:14:48.666Z,83.40
2023-05-17T04:15:49.008Z,82.83
2023-05-17T04:16:48.481Z,83.69
2023-05-17T04:17:48.823Z,83.69
2023-05-17T04:18:48.526Z,83.88
2023-05-17T04:19:48.514Z,84.45
2023-05-17T04:20:48.300Z,84.55
2023-05-17T04:21:48.422Z,84.64
2023-05-17T04:22:48.227Z,84.45
2023-05-17T04:23:48.308Z,83.78
2023-05-17T04:24:48.384Z,82.92
2023-05-17T04:25:48.111Z,82.83
2023-05-17T04:26:48.026Z,83.78
2023-05-17T04:27:48.134Z,83.50
2023-05-17T04:28:47.947Z,83.69
2023-05-17T04:29:47.966Z,83.78
2023-05-17T04:30:47.911Z,84.07
2023-05-17T04:31:47.982Z,84.83
2023-05-17T04:32:47.852Z,84.36
2023-05-17T04:33:47.751Z,83.50
2023-05-17T04:34:47.683Z,82.35
2023-05-17T04:35:47.784Z,82.54
2023-05-17T04:36:47.573Z,82.54
2023-05-17T04:37:47.588Z,81.88
2023-05-17T04:38:47.520Z,81.49
2023-05-17T04:39:47.439Z,81.02
2023-05-17T04:40:47.610Z,80.44
2023-05-17T04:41:47.350Z,79.49
2023-05-17T04:42:47.419Z,80.54
2023-05-17T04:43:47.483Z,81.40
2023-05-17T04:44:47.439Z,81.02
2023-05-17T04:45:47.176Z,79.59
2023-05-17T04:46:47.252Z,79.97
2023-05-17T04:47:47.146Z,80.16
2023-05-17T04:48:47.419Z,79.68
2023-05-17T04:49:46.986Z,79.88
2023-05-17T04:50:47.089Z,79.59
2023-05-17T04:51:46.900Z,79.59
2023-05-17T04:52:47.088Z,79.68
2023-05-17T04:53:46.808Z,78.83
2023-05-17T04:54:47.102Z,79.11
2023-05-17T04:55:46.728Z,79.02
2023-05-17T04:56:46.912Z,77.97
2023-05-17T04:57:46.674Z,76.82
2023-05-17T04:58:46.721Z,77.49
2023-05-17T04:59:46.541Z,77.30
2023-05-17T05:00:46.546Z,76.64
2023-05-17T05:01:46.760Z,77.78
2023-05-17T05:02:46.507Z,77.87
2023-05-17T05:03:46.405Z,77.49
2023-05-17T05:04:46.386Z,78.16
2023-05-17T05:05:46.618Z,78.25
2023-05-17T05:06:46.372Z,77.78
2023-05-17T05:07:46.179Z,78.35
2023-05-17T05:08:46.141Z,77.20
2023-05-17T05:09:46.092Z,77.78
2023-05-17T05:10:46.191Z,76.92
2023-05-17T05:11:46.181Z,77.49
2023-05-17T05:12:46.001Z,78.10
2023-05-17T05:13:45.911Z,78.30
2023-05-17T05:14:45.861Z,77.91
2023-05-17T05:15:45.820Z,77.62
2023-05-17T05:16:45.827Z,77.53
2023-05-17T05:17:45.982Z,76.96
2023-05-17T05:18:45.990Z,75.59
2023-05-17T05:19:45.683Z,76.20
2023-05-17T05:20:45.583Z,76.86
2023-05-17T05:21:45.715Z,75.78
2023-05-17T05:22:45.661Z,75.59
2023-05-17T05:23:45.495Z,75.30
2023-05-17T05:24:46.499Z,76.16
2023-05-17T05:25:45.372Z,76.86
2023-05-17T05:26:45.327Z,76.67
2023-05-17T05:27:45.281Z,76.77
2023-05-17T05:28:45.309Z,76.67
2023-05-17T05:29:45.357Z,76.10
2023-05-17T05:30:45.313Z,76.39
2023-05-17T05:31:45.108Z,75.43
2023-05-17T05:32:45.140Z,74.29
2023-05-17T05:33:45.162Z,74.19
2023-05-17T05:34:45.084Z,74.86
2023-05-17T05:35:44.991Z,74.86
2023-05-17T05:36:45.259Z,74.96
2023-05-17T05:37:44.824Z,74.48
2023-05-17T05:38:44.880Z,74.19
2023-05-17T05:39:44.737Z,74.19
2023-05-17T05:40:44.772Z,74.38
2023-05-17T05:41:44.674Z,73.33
2023-05-17T05:42:44.786Z,73.72
2023-05-17T05:43:44.796Z,73.43
2023-05-17T05:44:44.513Z,73.62
2023-05-17T05:45:44.606Z,73.91
2023-05-17T05:46:44.427Z,73.14
2023-05-17T05:47:44.858Z,72.96
2023-05-17T05:48:44.379Z,73.14
2023-05-17T05:49:44.294Z,74.01
2023-05-17T05:50:44.266Z,73.43
2023-05-17T05:51:44.458Z,73.43
2023-05-17T05:52:44.155Z,72.38
2023-05-17T05:53:44.168Z,72.19
2023-05-17T05:55:05.158Z,71.91
2023-05-17T05:55:44.029Z,73.33
2023-05-17T05:56:44.097Z,73.33
2023-05-17T05:57:43.941Z,73.24
2023-05-17T05:58:45.117Z,71.72
2023-05-17T05:59:43.941Z,71.52
2023-05-17T06:03:47.198Z,71.52
2023-05-17T06:04:46.836Z,71.81
2023-05-17T06:05:50.587Z,72.76
2023-05-17T06:06:46.856Z,72.48
2023-05-17T06:07:46.681Z,73.33
2023-05-17T06:08:47.033Z,72.28
2023-05-17T06:09:46.583Z,71.81
2023-05-17T06:10:46.656Z,72.28
2023-05-17T06:11:46.489Z,73.33
2023-05-17T06:12:47.675Z,73.08
2023-05-17T06:13:46.442Z,72.71
2023-05-17T06:14:46.474Z,71.75
2023-05-17T06:15:46.320Z,72.13
2023-05-17T06:16:46.483Z,71.75
2023-05-17T06:17:46.349Z,71.37
2023-05-17T06:18:48.671Z,71.66
2023-05-17T06:19:46.149Z,71.66
2023-05-17T06:20:46.308Z,72.03
2023-05-17T06:21:46.049Z,71.84
2023-05-17T06:22:46.116Z,71.08
2023-05-17T06:23:45.949Z,71.46
2023-05-17T06:24:45.927Z,70.51
2023-05-17T06:25:45.861Z,70.32
2023-05-17T06:26:45.941Z,70.70
2023-05-17T06:27:45.830Z,70.22
2023-05-17T06:28:45.973Z,69.93
2023-05-17T06:29:45.730Z,70.13
2023-05-17T06:30:45.635Z,68.79
2023-05-17T06:31:45.612Z,69.65
2023-05-17T06:32:45.796Z,68.22
2023-05-17T06:33:45.708Z,69.65
2023-05-17T06:34:45.588Z,69.27
2023-05-17T06:35:55.566Z,69.56
2023-05-17T06:36:45.372Z,69.97
2023-05-17T06:37:45.427Z,70.16
2023-05-17T06:38:45.284Z,69.59
2023-05-17T06:39:51.647Z,68.54
2023-05-17T06:40:45.190Z,68.63
2023-05-17T06:41:45.226Z,68.73
2023-05-17T06:42:46.274Z,67.87
2023-05-17T06:43:45.061Z,68.63
2023-05-17T06:44:45.256Z,68.92
2023-05-17T06:45:45.304Z,68.06
2023-05-17T06:46:45.066Z,68.54
2023-05-17T06:47:44.937Z,68.57
2023-05-17T06:48:44.993Z,67.91
2023-05-17T06:49:44.881Z,68.10
2023-05-17T06:50:44.758Z,67.05
2023-05-17T06:51:44.897Z,67.05
2023-05-17T06:52:44.668Z,66.60
2023-05-17T06:53:44.726Z,66.89
2023-05-17T06:54:44.578Z,66.79
2023-05-17T06:55:44.709Z,65.84
2023-05-17T06:56:44.541Z,65.74
2023-05-17T06:57:44.537Z,65.84
2023-05-17T06:58:44.409Z,64.34
2023-05-17T06:59:44.538Z,63.16
2023-05-17T07:00:44.310Z,64.02
2023-05-17T07:01:44.348Z,64.02
2023-05-17T07:02:44.497Z,64.31
2023-05-17T07:03:44.438Z,64.34
2023-05-17T07:04:44.187Z,64.53
2023-05-17T07:05:44.093Z,63.57
2023-05-17T07:06:44.058Z,62.52
2023-05-17T07:07:44.291Z,62.24
2023-05-17T07:08:44.002Z,62.71
2023-05-17T07:09:44.003Z,61.95
2023-05-17T07:10:44.054Z,61.72
2023-05-17T07:11:43.842Z,61.54
2023-05-17T07:12:43.787Z,61.92
2023-05-17T07:13:43.821Z,62.11
2023-05-17T07:14:43.734Z,62.14
2023-05-17T07:15:43.835Z,61.38
2023-05-17T07:16:43.901Z,61.66
2023-05-17T07:17:43.641Z,62.04
2023-05-17T07:18:44.184Z,62.04
2023-05-17T07:19:43.608Z,61.95
2023-05-17T07:20:43.669Z,61.76
2023-05-17T07:21:43.426Z,61.76
2023-05-17T07:22:43.490Z,61.19
2023-05-17T07:23:43.330Z,61.57
2023-05-17T07:24:43.392Z,61.19
2023-05-17T07:25:43.236Z,61.28
2023-05-17T07:26:43.421Z,60.61
2023-05-17T07:27:43.416Z,60.42
2023-05-17T07:28:43.109Z,61.19
2023-05-17T07:29:43.067Z,60.71
2023-05-17T07:30:43.253Z,60.80
2023-05-17T07:31:43.090Z,60.90
2023-05-17T07:32:43.097Z,60.90
2023-05-17T07:33:42.892Z,60.71
2023-05-17T07:34:43.127Z,60.71
2023-05-17T07:35:42.796Z,61.09
2023-05-17T07:36:42.873Z,60.04
2023-05-17T07:37:42.748Z,59.27
2023-05-17T07:38:43.082Z,59.20
2023-05-17T07:39:42.871Z,58.70
2023-05-17T07:40:42.587Z,58.41
2023-05-17T07:41:42.543Z,59.18
2023-05-17T07:42:42.925Z,58.98
2023-05-17T07:43:42.452Z,59.01
2023-05-17T07:44:42.523Z,59.69
2023-05-17T07:45:42.371Z,59.20
2023-05-17T07:46:42.385Z,59.14
2023-05-17T07:47:42.620Z,58.76
2023-05-17T07:48:42.389Z,58.28
2023-05-17T07:49:42.357Z,57.83
2023-05-17T07:50:42.157Z,56.10
2023-05-17T07:51:42.274Z,56.20
2023-05-17T07:52:42.096Z,56.39
2023-05-17T07:53:42.174Z,55.82
2023-05-17T07:54:42.002Z,56.20
2023-05-17T07:55:43.037Z,56.42
2023-05-17T07:56:41.908Z,56.39
2023-05-17T07:57:42.208Z,55.75
2023-05-17T07:58:41.828Z,55.27
2023-05-17T07:59:42.016Z,54.32
2023-05-17T08:00:41.734Z,53.55
2023-05-17T08:01:41.821Z,54.34
2023-05-17T08:02:41.680Z,54.15
2023-05-17T08:03:41.840Z,53.50
2023-05-17T08:04:41.603Z,52.26
2023-05-17T08:05:41.673Z,52.28
2023-05-17T08:06:42.434Z,52.19
2023-05-17T08:07:41.673Z,50.96
2023-05-17T08:08:41.724Z,50.39
2023-05-17T08:09:41.473Z,48.97
2023-05-17T08:10:41.311Z,48.49
2023-05-17T08:11:42.110Z,48.71
2023-05-17T08:12:41.547Z,48.81
2023-05-17T08:13:41.550Z,48.74
2023-05-17T08:14:41.163Z,48.45
2023-05-17T08:15:41.521Z,47.49
2023-05-17T08:16:41.074Z,45.66
2023-05-17T08:17:41.201Z,46.23
2023-05-17T08:18:41.118Z,46.19
2023-05-17T08:19:41.526Z,45.90
2023-05-17T08:20:40.959Z,44.86
2023-05-17T08:21:40.868Z,43.32
2023-05-17T08:22:40.834Z,43.71
2023-05-17T08:23:40.959Z,43.61
2023-05-17T08:24:41.029Z,43.34
2023-05-17T08:25:44.038Z,42.96
2023-05-17T08:26:40.670Z,43.15
2023-05-17T08:27:40.630Z,42.96
2023-05-17T08:28:40.600Z,42.59
2023-05-17T08:29:40.807Z,42.88
2023-05-17T08:30:40.559Z,41.84
2023-05-17T08:31:40.678Z,40.88
2023-05-17T08:32:40.477Z,40.99
2023-05-17T08:33:40.491Z,40.61
2023-05-17T08:34:40.363Z,40.15
2023-05-17T08:35:40.432Z,39.66
2023-05-17T08:36:40.528Z,39.78
2023-05-17T08:37:40.454Z,38.79
2023-05-17T08:38:40.211Z,38.91
2023-05-17T08:39:40.199Z,38.83
2023-05-17T08:40:41.290Z,38.25
2023-05-17T08:41:40.111Z,38.06
2023-05-17T08:42:40.541Z,37.96
2023-05-17T08:43:40.287Z,37.67
2023-05-17T08:44:39.979Z,37.96
2023-05-17T08:45:40.094Z,37.95
2023-05-17T08:46:39.911Z,37.48
2023-05-17T08:47:40.323Z,38.45
2023-05-17T08:48:39.866Z,37.56
2023-05-17T08:49:39.930Z,37.63
2023-05-17T08:50:39.757Z,37.63
2023-05-17T08:51:39.720Z,38.21
2023-05-17T08:52:39.949Z,38.62
2023-05-17T08:53:39.644Z,37.83
2023-05-17T08:54:40.983Z,38.12
2023-05-17T08:55:40.500Z,38.39
2023-05-17T08:56:39.557Z,38.46
2023-05-17T08:57:39.492Z,38.85
2023-05-17T08:58:52.379Z,38.74
2023-05-17T08:59:39.424Z,39.70
2023-05-17T09:00:39.588Z,40.19
2023-05-17T09:01:39.345Z,40.39
2023-05-17T09:02:39.414Z,40.51
2023-05-17T09:03:39.384Z,39.74
2023-05-17T09:04:39.773Z,38.58
2023-05-17T09:05:39.239Z,38.20
2023-05-17T09:06:39.489Z,38.70
2023-05-17T09:07:39.128Z,38.43
2023-05-17T09:08:39.117Z,37.27
2023-05-17T09:09:39.454Z,38.16
2023-05-17T09:10:39.041Z,36.22
2023-05-17T09:11:39.278Z,36.24
2023-05-17T09:12:39.138Z,36.24
2023-05-17T09:13:39.093Z,35.95
2023-05-17T09:14:38.894Z,36.24
2023-05-17T09:15:39.099Z,36.05
2023-05-17T09:16:38.873Z,36.53
2023-05-17T09:17:38.940Z,35.86
2023-05-17T09:18:38.846Z,35.72
2023-05-17T09:19:39.021Z,35.92
2023-05-17T09:20:38.983Z,37.37
2023-05-17T09:21:38.740Z,37.37
2023-05-17T09:22:38.598Z,37.37
2023-05-17T09:23:38.751Z,36.88
2023-05-17T09:24:38.512Z,36.48
2023-05-17T09:25:38.466Z,37.15
2023-05-17T09:26:38.432Z,37.56
2023-05-17T09:27:38.786Z,37.56
2023-05-17T09:28:38.359Z,36.92
2023-05-17T09:29:38.574Z,35.76
2023-05-17T09:30:38.435Z,35.10
2023-05-17T09:31:38.250Z,35.88
2023-05-17T09:32:38.231Z,35.39
2023-05-17T09:33:38.468Z,34.81
2023-05-17T09:34:38.150Z,34.83
2023-05-17T09:35:38.434Z,34.45
2023-05-17T09:36:38.352Z,32.89
2023-05-17T09:37:38.283Z,33.09
2023-05-17T09:38:38.237Z,33.05
2023-05-17T09:39:37.982Z,34.20
2023-05-17T09:40:39.152Z,35.16
2023-05-17T09:41:38.106Z,35.05
2023-05-17T09:42:37.865Z,34.76
2023-05-17T09:43:37.837Z,35.36
2023-05-17T09:44:38.080Z,35.37
2023-05-17T09:45:37.755Z,34.81
2023-05-17T09:46:37.891Z,34.12
2023-05-17T09:47:37.909Z,33.54
2023-05-17T09:48:37.754Z,34.25
2023-05-17T09:49:37.621Z,33.18
2023-05-17T09:50:37.711Z,32.59
2023-05-17T09:51:37.563Z,32.68
2023-05-17T09:52:37.933Z,32.97
2023-05-17T09:53:37.480Z,32.97
2023-05-17T09:54:37.452Z,33.05
2023-05-17T09:55:39.311Z,33.14
2023-05-17T09:56:37.386Z,33.92
2023-05-17T09:57:37.565Z,34.71
2023-05-17T09:58:37.373Z,33.44
2023-05-17T09:59:37.295Z,33.34
2023-05-17T10:00:37.238Z,33.23
2023-05-17T10:01:37.388Z,34.47
2023-05-17T10:02:37.255Z,34.78
2023-05-17T10:03:37.806Z,34.56
2023-05-17T10:04:37.137Z,34.16
2023-05-17T10:05:37.084Z,34.45
2023-05-17T10:06:46.056Z,35.13
2023-05-17T10:07:37.234Z,35.78
2023-05-17T10:08:36.959Z,36.17
2023-05-17T10:09:37.041Z,35.78
2023-05-17T10:10:37.102Z,35.61
2023-05-17T10:11:37.046Z,35.92
2023-05-17T10:12:36.816Z,35.52
2023-05-17T10:13:37.077Z,35.21
2023-05-17T10:14:36.788Z,35.19
2023-05-17T10:15:36.898Z,35.85
2023-05-17T10:16:36.882Z,36.77
2023-05-17T10:17:36.655Z,37.81
2023-05-17T10:18:36.983Z,38.22
2023-05-17T10:19:36.653Z,38.31
2023-05-17T10:20:36.712Z,38.24
2023-05-17T10:21:36.491Z,37.96
2023-05-17T10:22:36.785Z,38.16
2023-05-17T10:23:36.422Z,37.68
2023-05-17T10:24:36.531Z,36.52
2023-05-17T10:25:36.344Z,36.71
2023-05-17T10:26:36.548Z,35.85
2023-05-17T10:27:36.263Z,35.27
2023-05-17T10:28:36.223Z,35.85
2023-05-17T10:29:36.572Z,37.19
2023-05-17T10:30:36.222Z,36.43
2023-05-17T10:31:36.387Z,37.48
2023-05-17T10:32:36.088Z,37.18
2023-05-17T10:33:36.297Z,37.08
2023-05-17T10:34:36.038Z,37.95
2023-05-17T10:35:36.204Z,38.43
2023-05-17T10:36:35.941Z,37.83
2023-05-17T10:37:36.018Z,38.41
2023-05-17T10:38:42.558Z,38.79
2023-05-17T10:39:36.079Z,39.56
2023-05-17T10:40:35.777Z,39.06
2023-05-17T10:41:36.064Z,39.26
2023-05-17T10:42:35.702Z,39.66
2023-05-17T10:43:35.853Z,39.54
2023-05-17T10:44:35.623Z,38.60
2023-05-17T10:45:35.909Z,38.10
2023-05-17T10:46:35.544Z,38.70
2023-05-17T10:47:35.737Z,38.29
2023-05-17T10:48:35.482Z,38.87
2023-05-17T10:49:35.749Z,38.99
2023-05-17T10:50:35.382Z,39.87
2023-05-17T10:51:35.347Z,38.83
2023-05-17T10:52:35.515Z,37.89
2023-05-17T10:53:35.454Z,37.52
2023-05-17T10:54:35.426Z,36.55
2023-05-17T10:55:35.305Z,36.46
2023-05-17T10:56:35.235Z,36.85
2023-05-17T10:58:35.243Z,36.36
2023-05-17T10:59:35.307Z,36.77
2023-05-17T11:00:35.047Z,36.29
2023-05-17T11:01:34.965Z,36.29
2023-05-17T11:02:34.963Z,36.29
2023-05-17T11:03:35.069Z,35.32
2023-05-17T11:04:35.058Z,35.03
2023-05-17T11:05:35.006Z,36.21
2023-05-17T11:06:34.834Z,35.66
2023-05-17T11:07:34.791Z,34.10
2023-05-17T11:08:34.801Z,34.41
2023-05-17T11:09:34.662Z,34.70
2023-05-17T11:10:34.812Z,35.37
2023-05-17T11:11:34.872Z,34.60
2023-05-17T11:12:36.015Z,33.84
2023-05-17T11:13:34.528Z,33.76
2023-05-17T11:14:34.481Z,32.51
2023-05-17T11:15:34.650Z,32.29
2023-05-17T11:16:34.407Z,31.91
2023-05-17T11:17:34.498Z,32.57
2023-05-17T11:18:36.937Z,33.44
2023-05-17T11:19:34.562Z,33.34
2023-05-17T11:20:34.965Z,33.45
2023-05-17T11:21:34.234Z,33.25
2023-05-17T11:22:34.286Z,31.99
2023-05-17T11:23:34.362Z,31.98
2023-05-17T11:24:34.308Z,31.80
2023-05-17T11:25:34.086Z,31.60
2023-05-17T11:26:34.051Z,33.15
2023-05-17T11:27:34.129Z,33.15
2023-05-17T11:28:33.970Z,32.76
2023-05-17T11:29:34.138Z,32.28
2023-05-17T11:30:33.901Z,31.22
2023-05-17T11:31:33.971Z,31.99
2023-05-17T11:32:33.868Z,31.89
2023-05-17T11:33:34.202Z,32.86
2023-05-17T11:34:33.844Z,32.20
2023-05-17T11:35:33.983Z,31.91
2023-05-17T11:36:33.692Z,31.13
2023-05-17T11:37:33.647Z,31.31
2023-05-17T11:38:33.613Z,31.31
2023-05-17T11:39:33.814Z,31.68
2023-05-17T11:40:33.535Z,30.82
2023-05-17T11:41:33.612Z,31.78
2023-05-17T11:42:33.467Z,31.78
2023-05-17T11:43:33.434Z,32.18
2023-05-17T11:44:33.444Z,31.51
2023-05-17T11:45:33.504Z,31.89
2023-05-17T11:46:33.456Z,31.71
2023-05-17T11:47:33.361Z,32.02
2023-05-17T11:48:33.678Z,31.15
2023-05-17T11:49:35.602Z,30.58
2023-05-17T11:50:33.275Z,29.24
2023-05-17T11:51:33.162Z,29.05
2023-05-17T11:52:33.702Z,29.06
2023-05-17T11:53:33.075Z,28.30
2023-05-17T11:54:33.123Z,27.82
2023-05-17T11:55:33.027Z,27.82
2023-05-17T11:56:42.786Z,27.42
2023-05-17T11:57:32.943Z,28.00
2023-05-17T11:58:33.151Z,28.68
2023-05-17T11:59:32.864Z,28.87
2023-05-17T12:00:32.943Z,29.15
2023-05-17T12:01:32.795Z,28.65
2023-05-17T12:02:33.070Z,29.33
2023-05-17T12:03:32.725Z,28.92
2023-05-17T12:04:33.392Z,29.60
2023-05-17T12:05:32.816Z,29.90
2023-05-17T12:06:32.834Z,29.88
2023-05-17T12:07:32.592Z,30.25
2023-05-17T12:08:32.582Z,30.72
2023-05-17T12:09:32.523Z,31.68
2023-05-17T12:10:34.660Z,31.98
2023-05-17T12:11:32.496Z,32.18
2023-05-17T12:12:32.401Z,30.73
2023-05-17T12:13:32.372Z,31.22
2023-05-17T12:14:32.438Z,30.93
2023-05-17T12:15:32.299Z,31.34
2023-05-17T12:16:32.448Z,31.56
2023-05-17T12:17:32.614Z,29.84
2023-05-17T12:18:32.287Z,29.28
2023-05-17T12:19:32.266Z,28.51
2023-05-17T12:20:32.377Z,28.70
2023-05-17T12:21:32.094Z,28.03
2023-05-17T12:22:32.278Z,28.22
2023-05-17T12:23:32.084Z,28.14
2023-05-17T12:24:32.029Z,28.44
2023-05-17T12:25:31.948Z,28.18
2023-05-17T12:26:32.104Z,27.32
2023-05-17T12:27:31.886Z,25.95
2023-05-17T12:28:31.912Z,25.26
2023-05-17T12:29:31.974Z,25.75
2023-05-17T12:30:31.777Z,25.56
2023-05-17T12:31:31.752Z,25.85
2023-05-17T12:32:31.996Z,26.04
2023-05-17T12:33:31.713Z,25.45
2023-05-17T12:34:31.749Z,25.93
2023-05-17T12:35:31.642Z,25.15
2023-05-17T12:36:31.586Z,24.95
2023-05-17T12:37:31.540Z,25.14
2023-05-17T12:38:31.573Z,24.96
2023-05-17T12:39:31.481Z,24.29
2023-05-17T12:40:31.767Z,23.80
2023-05-17T12:41:31.646Z,23.99
2023-05-17T12:42:31.380Z,25.04
2023-05-17T12:43:31.400Z,25.21
2023-05-17T12:44:31.302Z,25.78
2023-05-17T12:45:31.472Z,27.13
2023-05-17T12:46:31.231Z,27.72
2023-05-17T12:47:31.485Z,27.14
2023-05-17T12:48:31.882Z,26.17
2023-05-17T12:49:31.155Z,27.33
2023-05-17T12:50:31.370Z,27.25
2023-05-17T12:51:31.097Z,26.20
2023-05-17T12:52:31.275Z,26.50
2023-05-17T12:53:30.989Z,26.49
2023-05-17T12:54:31.058Z,26.49
2023-05-17T12:55:32.162Z,25.67